createdAt,value
2024-05-09T00:01:59.167Z,9.20
2024-05-09T00:04:30.609Z,8.35
2024-05-09T00:07:01.438Z,8.27
2024-05-09T00:09:33.030Z,11.75
2024-05-09T00:12:04.094Z,7.90
2024-05-09T00:14:35.644Z,11.25
2024-05-09T00:17:10.058Z,12.30
2024-05-09T00:19:42.798Z,10.30
2024-05-09T00:22:13.675Z,7.72
2024-05-09T00:24:45.011Z,7.47
2024-05-09T00:27:15.904Z,15.90
2024-05-09T00:29:47.213Z,7.72
2024-05-09T00:32:20.982Z,9.88
2024-05-09T00:34:53.749Z,10.80
2024-05-09T00:37:24.785Z,42.25
2024-05-09T00:39:56.536Z,50.70
2024-05-09T00:42:27.500Z,17.17
2024-05-09T00:44:58.759Z,15.15
2024-05-09T00:47:32.518Z,13.85
2024-05-09T00:50:07.636Z,10.85
2024-05-09T00:52:43.986Z,17.27
2024-05-09T00:55:16.189Z,15.55
2024-05-09T00:57:47.843Z,17.77
2024-05-09T01:00:27.124Z,14.20
2024-05-09T01:03:10.970Z,12.07
2024-05-09T01:05:44.584Z,10.90
2024-05-09T01:08:16.695Z,12.65
2024-05-09T01:10:48.896Z,14.48
2024-05-09T01:13:19.839Z,15.75
2024-05-09T01:15:54.014Z,10.40
2024-05-09T01:18:27.827Z,9.52
2024-05-09T01:20:59.148Z,7.80
2024-05-09T01:23:32.781Z,9.18
2024-05-09T01:26:04.121Z,8.98
2024-05-09T01:28:34.963Z,6.97
2024-05-09T01:31:06.471Z,8.52
2024-05-09T01:33:37.683Z,12.18
2024-05-09T01:36:09.723Z,7.32
2024-05-09T01:38:43.201Z,8.80
2024-05-09T01:41:14.521Z,8.07
2024-05-09T01:43:45.432Z,8.40
2024-05-09T01:46:17.669Z,8.57
2024-05-09T01:48:49.084Z,10.35
2024-05-09T01:51:20.764Z,7.90
2024-05-09T01:53:56.978Z,10.88
2024-05-09T01:56:28.402Z,9.55
2024-05-09T01:58:59.442Z,9.88
2024-05-09T02:01:30.808Z,7.43
2024-05-09T02:04:21.819Z,7.47
2024-05-09T02:06:53.488Z,9.63
2024-05-09T02:09:27.085Z,8.48
2024-05-09T02:11:58.584Z,7.13
2024-05-09T02:14:29.638Z,13.60
2024-05-09T02:17:01.073Z,9.45
2024-05-09T02:19:32.141Z,7.57
2024-05-09T02:22:03.545Z,7.47
2024-05-09T02:24:37.035Z,9.80
2024-05-09T02:27:08.593Z,7.13
2024-05-09T02:29:39.624Z,8.80
2024-05-09T02:32:11.158Z,7.32
2024-05-09T02:34:42.020Z,5.97
2024-05-09T02:37:10.661Z,9.70
2024-05-09T02:39:44.019Z,9.45
2024-05-09T02:42:12.631Z,6.32
2024-05-09T02:44:43.417Z,7.38
2024-05-09T02:47:12.144Z,6.55
2024-05-09T02:49:43.210Z,5.72
2024-05-09T02:52:11.966Z,6.85
2024-05-09T02:54:45.362Z,8.68
2024-05-09T02:57:14.207Z,10.20
2024-05-09T02:59:46.201Z,8.27
2024-05-09T03:02:14.985Z,7.00
2024-05-09T03:04:45.950Z,6.97
2024-05-09T03:07:14.762Z,7.15
2024-05-09T03:09:51.980Z,8.70
2024-05-09T03:12:20.695Z,13.05
2024-05-09T03:14:53.682Z,9.60
2024-05-09T03:17:24.314Z,8.75
2024-05-09T03:19:55.695Z,9.35
2024-05-09T03:22:24.428Z,8.07
2024-05-09T03:24:57.841Z,7.63
2024-05-09T03:27:26.578Z,5.82
2024-05-09T03:29:57.364Z,7.97
2024-05-09T03:32:29.163Z,8.73
2024-05-09T03:34:57.655Z,9.90
2024-05-09T03:37:29.090Z,12.85
2024-05-09T03:40:02.931Z,9.38
2024-05-09T03:42:40.863Z,7.13
2024-05-09T03:45:09.407Z,8.13
2024-05-09T03:47:41.000Z,11.17
2024-05-09T03:50:17.626Z,9.00
2024-05-09T03:52:53.590Z,9.68
2024-05-09T03:55:24.402Z,10.52
2024-05-09T03:57:55.674Z,9.57
2024-05-09T04:00:31.313Z,10.15
2024-05-09T04:03:11.532Z,15.57
2024-05-09T04:05:42.788Z,9.23
2024-05-09T04:08:18.134Z,11.98
2024-05-09T04:10:49.278Z,14.63
2024-05-09T04:13:20.728Z,10.07
2024-05-09T04:15:49.004Z,8.70
2024-05-09T04:18:20.915Z,10.73
2024-05-09T04:20:49.379Z,16.65
2024-05-09T04:23:20.969Z,24.80
2024-05-09T04:25:51.914Z,14.85
2024-05-09T04:28:24.342Z,16.83
2024-05-09T04:30:52.525Z,12.40
2024-05-09T04:33:23.937Z,8.23
2024-05-09T04:35:53.609Z,9.93
2024-05-09T04:38:24.952Z,9.18
2024-05-09T04:40:55.868Z,6.80
2024-05-09T04:43:27.506Z,6.15
2024-05-09T04:45:55.659Z,7.70
2024-05-09T04:48:27.300Z,8.85
2024-05-09T04:50:55.647Z,6.43
2024-05-09T04:53:27.261Z,7.43
2024-05-09T04:55:58.276Z,10.68
2024-05-09T04:58:29.629Z,7.93
2024-05-09T05:00:58.057Z,6.25
2024-05-09T05:03:29.464Z,7.83
2024-05-09T05:05:57.982Z,7.68
2024-05-09T05:08:29.788Z,20.50
2024-05-09T05:11:00.973Z,12.00
2024-05-09T05:13:36.738Z,7.72
2024-05-09T05:16:09.376Z,9.77
2024-05-09T05:18:38.194Z,7.38
2024-05-09T05:21:09.730Z,28.50
2024-05-09T05:23:38.500Z,6.03
2024-05-09T05:26:12.151Z,4.50
2024-05-09T05:28:40.816Z,5.63
2024-05-09T05:31:11.797Z,5.80
2024-05-09T05:33:40.506Z,7.05
2024-05-09T05:36:12.315Z,8.63
2024-05-09T05:38:41.122Z,7.88
2024-05-09T05:41:17.620Z,7.45
2024-05-09T05:43:46.718Z,8.85
2024-05-09T05:46:17.585Z,14.45
2024-05-09T05:48:46.467Z,9.40
2024-05-09T05:51:17.482Z,8.98
2024-05-09T05:53:46.583Z,6.47
2024-05-09T05:56:20.229Z,5.93
2024-05-09T05:58:49.988Z,8.00
2024-05-09T06:01:20.908Z,6.07
2024-05-09T06:03:49.678Z,5.20
2024-05-09T06:06:20.576Z,4.82
2024-05-09T06:08:49.351Z,5.80
2024-05-09T06:11:22.838Z,5.45
2024-05-09T06:13:51.496Z,5.82
2024-05-09T06:16:22.450Z,2.90
2024-05-09T06:18:51.260Z,5.70
2024-05-09T06:21:22.488Z,7.97
2024-05-09T06:23:51.289Z,3.47
2024-05-09T06:26:24.765Z,5.50
2024-05-09T06:28:53.443Z,3.70
2024-05-09T06:31:24.357Z,2.20
2024-05-09T06:33:53.181Z,3.45
2024-05-09T06:36:24.110Z,11.40
2024-05-09T06:38:52.894Z,5.80
2024-05-09T06:41:26.465Z,3.42
2024-05-09T06:43:55.353Z,4.28
2024-05-09T06:46:26.760Z,4.35
2024-05-09T06:48:55.751Z,3.03
2024-05-09T06:51:26.762Z,9.77
2024-05-09T06:53:55.751Z,3.70
2024-05-09T06:56:29.440Z,3.73
2024-05-09T06:58:58.180Z,5.03
2024-05-09T07:01:29.069Z,4.65
2024-05-09T07:03:57.924Z,7.80
2024-05-09T07:06:28.829Z,5.43
2024-05-09T07:08:57.508Z,5.22
2024-05-09T07:11:31.664Z,11.73
2024-05-09T07:14:00.610Z,5.15
2024-05-09T07:16:31.461Z,6.38
2024-05-09T07:19:00.251Z,6.18
2024-05-09T07:21:32.447Z,5.32
2024-05-09T07:24:02.278Z,6.97
2024-05-09T07:26:35.853Z,13.80
2024-05-09T07:29:04.903Z,3.35
2024-05-09T07:31:35.782Z,4.30
2024-05-09T07:34:04.637Z,9.48
2024-05-09T07:36:35.501Z,15.47
2024-05-09T07:39:05.933Z,4.65
2024-05-09T07:41:39.833Z,6.43
2024-05-09T07:44:08.889Z,3.45
2024-05-09T07:47:47.664Z,3.60
2024-05-09T07:53:25.392Z,4.05
2024-05-09T07:54:51.014Z,4.75
2024-05-09T07:57:24.635Z,7.22
2024-05-09T07:59:53.644Z,29.67
2024-05-09T08:02:24.551Z,3.97
2024-05-09T08:04:53.643Z,9.30
2024-05-09T08:07:24.682Z,5.85
2024-05-09T08:09:54.229Z,5.60
2024-05-09T08:12:27.917Z,8.13
2024-05-09T08:14:56.648Z,5.38
2024-05-09T08:17:27.621Z,3.72
2024-05-09T08:19:56.397Z,3.25
2024-05-09T08:22:30.646Z,4.28
2024-05-09T08:24:59.519Z,4.03
2024-05-09T08:27:32.986Z,3.77
2024-05-09T08:30:01.841Z,4.57
2024-05-09T08:32:34.868Z,5.03
2024-05-09T08:35:03.949Z,9.55
2024-05-09T08:37:38.739Z,4.18
2024-05-09T08:40:16.674Z,3.92
2024-05-09T08:42:56.236Z,4.50
2024-05-09T08:45:25.995Z,7.20
2024-05-09T08:50:35.375Z,4.30
2024-05-09T08:53:09.639Z,5.03
2024-05-09T08:55:41.787Z,4.90
2024-05-09T08:58:19.693Z,7.35
2024-05-09T09:00:49.784Z,5.25
2024-05-09T09:03:25.071Z,8.43
2024-05-09T09:06:05.951Z,6.05
2024-05-09T09:08:36.761Z,5.90
2024-05-09T09:11:05.942Z,5.72
2024-05-09T09:13:39.318Z,7.53
2024-05-09T09:16:08.611Z,4.60
2024-05-09T09:18:39.586Z,3.72
2024-05-09T09:21:11.610Z,4.18
2024-05-09T09:23:42.983Z,8.23
2024-05-09T09:26:16.812Z,7.70
2024-05-09T09:28:50.885Z,5.57
2024-05-09T09:31:20.000Z,5.93
2024-05-09T09:33:51.054Z,4.32
2024-05-09T09:36:19.997Z,9.40
2024-05-09T09:38:51.390Z,5.93
2024-05-09T09:41:26.022Z,6.82
2024-05-09T09:44:01.594Z,5.65
2024-05-09T09:46:31.276Z,7.45
2024-05-09T09:51:32.258Z,4.93
2024-05-09T09:54:06.455Z,6.55
2024-05-09T09:56:39.219Z,5.32
2024-05-09T09:59:15.515Z,4.82
2024-05-09T10:01:46.031Z,10.35
2024-05-09T10:04:19.149Z,5.25
2024-05-09T10:06:53.201Z,5.22
2024-05-09T10:09:24.589Z,8.35
2024-05-09T10:11:59.739Z,11.63
2024-05-09T10:14:42.494Z,5.13
2024-05-09T10:17:11.309Z,18.27
2024-05-09T10:19:42.172Z,12.60
2024-05-09T10:22:11.241Z,19.38
2024-05-09T10:24:53.396Z,8.90
2024-05-09T10:27:29.465Z,6.80
2024-05-09T10:30:09.108Z,5.05
2024-05-09T10:32:44.999Z,6.15
2024-05-09T10:35:16.583Z,6.20
2024-05-09T10:37:46.744Z,6.80
2024-05-09T10:40:26.017Z,5.50
2024-05-09T10:43:04.534Z,4.10
2024-05-09T10:45:41.695Z,11.70
2024-05-09T10:48:11.246Z,4.57
2024-05-09T10:50:43.930Z,6.47
2024-05-09T10:53:12.707Z,8.07
2024-05-09T10:55:43.469Z,3.90
2024-05-09T10:58:18.304Z,5.53
2024-05-09T11:00:52.110Z,4.75
2024-05-09T11:03:21.672Z,6.35
2024-05-09T11:05:52.836Z,8.27
2024-05-09T11:08:22.618Z,4.68
2024-05-09T11:10:55.272Z,9.32
2024-05-09T11:13:28.123Z,5.05
2024-05-09T11:16:02.885Z,6.95
2024-05-09T11:18:36.496Z,7.70
2024-05-09T11:21:15.756Z,7.07
2024-05-09T11:23:44.429Z,5.13
2024-05-09T11:26:15.730Z,4.60
2024-05-09T11:28:45.629Z,6.22
2024-05-09T11:31:19.420Z,4.15
2024-05-09T11:33:48.393Z,6.18
2024-05-09T11:36:19.362Z,6.50
2024-05-09T11:38:48.192Z,5.47
2024-05-09T11:41:21.074Z,6.32
2024-05-09T11:43:50.950Z,6.82
2024-05-09T11:46:24.914Z,6.17
2024-05-09T11:48:56.488Z,8.02
2024-05-09T11:51:24.874Z,9.48
2024-05-09T11:53:57.288Z,3.97
2024-05-09T11:56:25.584Z,5.35
2024-05-09T11:58:57.095Z,12.27
2024-05-09T12:01:28.352Z,9.55
2024-05-09T12:04:01.385Z,7.03
2024-05-09T12:06:30.187Z,6.43
2024-05-09T12:09:01.712Z,7.75
2024-05-09T12:11:30.139Z,6.00
2024-05-09T12:14:01.331Z,5.70
2024-05-09T12:16:32.492Z,5.78
2024-05-09T12:19:04.040Z,8.93
2024-05-09T12:21:32.558Z,5.60
2024-05-09T12:24:03.827Z,6.03
2024-05-09T12:26:32.554Z,4.88
2024-05-09T12:29:03.748Z,5.20
2024-05-09T12:31:34.786Z,6.57
2024-05-09T12:34:06.193Z,5.72
2024-05-09T12:36:34.740Z,8.40
2024-05-09T12:39:06.450Z,17.48
2024-05-09T12:41:34.790Z,7.03
2024-05-09T12:44:05.990Z,6.50
2024-05-09T12:46:37.097Z,5.90
2024-05-09T12:49:08.628Z,9.38
2024-05-09T12:51:36.992Z,4.78
2024-05-09T12:54:08.373Z,26.42
2024-05-09T12:56:36.764Z,6.22
2024-05-09T12:59:07.929Z,8.23
2024-05-09T13:01:38.936Z,11.10
2024-05-09T13:04:10.462Z,10.20
2024-05-09T13:06:39.016Z,13.82
2024-05-09T13:09:10.311Z,25.45
2024-05-09T13:11:38.873Z,6.00
2024-05-09T13:14:10.146Z,14.23
2024-05-09T13:16:41.197Z,7.93
2024-05-09T13:19:12.633Z,14.68
2024-05-09T13:21:40.954Z,5.60
2024-05-09T13:24:12.228Z,9.82
2024-05-09T13:26:40.736Z,6.03
2024-05-09T13:29:11.928Z,11.27
2024-05-09T13:31:42.958Z,9.43
2024-05-09T13:34:14.345Z,7.90
2024-05-09T13:36:42.941Z,3.72
2024-05-09T13:39:14.153Z,8.10
2024-05-09T13:41:42.476Z,9.57
2024-05-09T13:44:13.721Z,6.88
2024-05-09T13:46:44.906Z,9.93
2024-05-09T13:49:17.591Z,5.15
2024-05-09T13:51:46.110Z,7.35
2024-05-09T13:54:20.179Z,5.53
2024-05-09T13:56:52.200Z,6.93
2024-05-09T13:59:23.448Z,7.22
2024-05-09T14:01:54.644Z,4.82
2024-05-09T14:04:26.193Z,4.78
2024-05-09T14:06:54.719Z,7.10
2024-05-09T14:11:54.229Z,10.30
2024-05-09T14:14:25.514Z,11.43
2024-05-09T14:16:56.632Z,10.50
2024-05-09T14:19:28.225Z,8.63
2024-05-09T14:21:56.634Z,8.30
2024-05-09T14:24:27.791Z,13.13
2024-05-09T14:26:56.148Z,7.07
2024-05-09T14:29:27.351Z,6.45
2024-05-09T14:31:58.287Z,6.53
2024-05-09T14:34:29.803Z,7.65
2024-05-09T14:36:59.054Z,11.98
2024-05-09T14:39:30.311Z,6.10
2024-05-09T14:41:58.624Z,6.03
2024-05-09T14:44:29.776Z,5.90
2024-05-09T14:47:01.115Z,7.43
2024-05-09T14:49:32.535Z,8.65
2024-05-09T14:52:00.869Z,5.70
2024-05-09T14:54:32.173Z,5.97
2024-05-09T14:57:01.154Z,9.18
2024-05-09T14:59:32.400Z,8.55
2024-05-09T15:02:03.676Z,9.20
2024-05-09T15:04:35.076Z,10.52
2024-05-09T15:07:03.655Z,10.02
2024-05-09T15:12:09.520Z,9.45
2024-05-09T15:14:40.800Z,5.20
2024-05-09T15:17:11.905Z,10.25
2024-05-09T15:19:43.501Z,9.38
2024-05-09T15:22:16.489Z,10.20
2024-05-09T15:24:48.611Z,8.07
2024-05-09T15:27:18.692Z,9.95
2024-05-09T15:29:49.934Z,6.38
2024-05-09T15:32:20.881Z,10.25
2024-05-09T15:34:52.129Z,14.18
2024-05-09T15:37:20.768Z,11.93
2024-05-09T15:39:52.443Z,8.48
2024-05-09T15:42:20.870Z,12.00
2024-05-09T15:44:53.209Z,16.20
2024-05-09T15:47:24.454Z,14.70
2024-05-09T15:49:55.912Z,8.43
2024-05-09T15:52:24.343Z,16.90
2024-05-09T15:54:55.596Z,12.32
2024-05-09T15:57:25.200Z,11.48
2024-05-09T15:59:56.458Z,16.05
2024-05-09T16:02:27.567Z,11.38
2024-05-09T16:04:59.082Z,10.30
2024-05-09T16:07:27.533Z,9.52
2024-05-09T16:09:58.825Z,19.58
2024-05-09T16:12:27.131Z,16.30
2024-05-09T16:14:58.479Z,25.67
2024-05-09T16:17:29.593Z,8.02
2024-05-09T16:20:01.140Z,10.00
2024-05-09T16:22:29.515Z,12.43
2024-05-09T16:25:00.744Z,7.25
2024-05-09T16:27:29.418Z,6.55
2024-05-09T16:30:04.191Z,6.15
2024-05-09T16:32:40.987Z,5.43
2024-05-09T16:35:12.427Z,9.00
2024-05-09T16:37:40.740Z,7.82
2024-05-09T16:40:22.014Z,9.48
2024-05-09T16:42:58.824Z,8.25
2024-05-09T16:45:30.701Z,6.68
2024-05-09T16:48:03.116Z,7.03
2024-05-09T16:50:36.016Z,14.15
2024-05-09T16:53:05.983Z,9.32
2024-05-09T16:55:38.583Z,7.43
2024-05-09T16:58:08.567Z,11.63
2024-05-09T17:00:43.396Z,9.43
2024-05-09T17:03:17.275Z,10.52
2024-05-09T17:05:50.759Z,7.60
2024-05-09T17:08:19.989Z,9.07
2024-05-09T17:10:51.564Z,7.43
2024-05-09T17:13:22.962Z,7.18
2024-05-09T17:15:54.482Z,5.50
2024-05-09T17:18:28.474Z,7.85
2024-05-09T17:21:00.102Z,7.15
2024-05-09T17:23:29.222Z,7.13
2024-05-09T17:26:01.282Z,6.97
2024-05-09T17:28:29.916Z,9.32
2024-05-09T17:31:01.333Z,7.18
2024-05-09T17:33:32.454Z,8.52
2024-05-09T17:36:03.986Z,6.72
2024-05-09T17:38:32.271Z,10.00
2024-05-09T17:41:03.593Z,8.90
2024-05-09T17:43:31.842Z,8.98
2024-05-09T17:46:03.793Z,10.77
2024-05-09T17:48:35.068Z,10.73
2024-05-09T17:51:06.562Z,6.75
2024-05-09T17:53:34.718Z,10.75
2024-05-09T17:56:06.266Z,6.63
2024-05-09T17:58:34.473Z,6.85
2024-05-09T18:01:06.273Z,7.13
2024-05-09T18:03:37.482Z,7.53
2024-05-09T18:06:10.182Z,11.88
2024-05-09T18:08:38.484Z,12.20
2024-05-09T18:11:09.764Z,9.15
2024-05-09T18:13:38.156Z,48.03
2024-05-09T18:16:09.934Z,36.20
2024-05-09T18:18:41.527Z,49.42
2024-05-09T18:21:12.906Z,34.50
2024-05-09T18:23:41.134Z,21.85
2024-05-09T18:26:12.544Z,70.85
2024-05-09T18:28:41.155Z,33.17
2024-05-09T18:31:12.400Z,20.05
2024-05-09T18:33:43.298Z,18.38
2024-05-09T18:36:14.627Z,12.95
2024-05-09T18:38:42.948Z,17.90
2024-05-09T18:41:14.520Z,53.22
2024-05-09T18:43:45.412Z,24.85
2024-05-09T18:46:20.068Z,11.85
2024-05-09T18:48:51.918Z,12.55
2024-05-09T18:51:23.500Z,81.97
2024-05-09T18:53:52.614Z,95.20
2024-05-09T18:56:23.929Z,67.00
2024-05-09T18:58:54.951Z,30.67
2024-05-09T19:01:23.561Z,16.17
2024-05-09T19:03:58.198Z,19.87
2024-05-09T19:06:27.019Z,7.30
2024-05-09T19:08:58.755Z,13.32
2024-05-09T19:11:27.565Z,31.92
2024-05-09T19:14:03.696Z,41.13
2024-05-09T19:16:32.404Z,51.38
2024-05-09T19:19:07.638Z,33.97
2024-05-09T19:21:37.961Z,26.35
2024-05-09T19:24:10.546Z,13.65
2024-05-09T19:26:39.313Z,11.77
2024-05-09T19:29:10.327Z,15.95
2024-05-09T19:31:39.087Z,10.00
2024-05-09T19:34:13.229Z,13.98
2024-05-09T19:36:43.285Z,12.13
2024-05-09T19:39:14.619Z,18.38
2024-05-09T19:41:43.435Z,106.00
2024-05-09T19:44:14.193Z,74.40
2024-05-09T19:46:44.251Z,59.50
2024-05-09T19:49:18.331Z,40.28
2024-05-09T19:51:47.143Z,35.28
2024-05-09T19:54:17.982Z,27.05
2024-05-09T19:56:47.873Z,75.03
2024-05-09T19:59:18.737Z,73.28
2024-05-09T20:01:48.470Z,37.88
2024-05-09T20:04:22.358Z,21.70
2024-05-09T20:06:51.842Z,18.92
2024-05-09T20:09:22.635Z,24.77
2024-05-09T20:11:53.139Z,20.92
2024-05-09T20:14:24.134Z,16.70
2024-05-09T20:16:54.118Z,16.33
2024-05-09T20:19:27.661Z,16.35
2024-05-09T20:21:56.516Z,43.55
2024-05-09T20:24:27.307Z,35.10
2024-05-09T20:26:56.093Z,27.27
2024-05-09T20:29:27.290Z,25.92
2024-05-09T20:31:55.966Z,22.58
2024-05-09T20:34:29.450Z,25.33
2024-05-09T20:36:58.157Z,24.88
2024-05-09T20:39:29.562Z,34.53
2024-05-09T20:41:58.523Z,89.22
2024-05-09T20:44:29.509Z,100.18
2024-05-09T20:46:58.251Z,76.43
2024-05-09T20:49:32.555Z,83.80
2024-05-09T20:52:01.496Z,76.55
2024-05-09T20:54:32.669Z,55.25
2024-05-09T20:57:02.954Z,32.88
2024-05-09T20:59:34.213Z,35.25
2024-05-09T21:02:03.054Z,25.05
2024-05-09T21:04:36.949Z,25.25
2024-05-09T21:07:05.912Z,31.80
2024-05-09T21:09:36.757Z,23.08
2024-05-09T21:12:05.835Z,20.98
2024-05-09T21:14:36.995Z,32.25
2024-05-09T21:17:06.016Z,36.00
2024-05-09T21:19:39.673Z,32.90
2024-05-09T21:22:08.360Z,23.83
2024-05-09T21:24:39.316Z,21.10
2024-05-09T21:27:08.056Z,21.42
2024-05-09T21:29:38.991Z,21.50
2024-05-09T21:32:08.307Z,25.60
2024-05-09T21:34:41.805Z,22.98
2024-05-09T21:37:10.861Z,17.55
2024-05-09T21:39:41.843Z,20.58
2024-05-09T21:42:10.536Z,21.60
2024-05-09T21:44:41.295Z,21.27
2024-05-09T21:47:10.112Z,20.17
2024-05-09T21:49:43.833Z,20.10
2024-05-09T21:52:12.914Z,26.58
2024-05-09T21:54:43.792Z,24.73
2024-05-09T21:57:14.624Z,20.05
2024-05-09T21:59:45.403Z,22.95
2024-05-09T22:02:14.163Z,18.92
2024-05-09T22:04:47.903Z,22.95
2024-05-09T22:07:16.877Z,20.17
2024-05-09T22:09:47.942Z,17.37
2024-05-09T22:12:16.678Z,20.45
2024-05-09T22:14:47.429Z,19.27
2024-05-09T22:17:16.410Z,17.45
2024-05-09T22:19:52.500Z,15.32
2024-05-09T22:22:21.473Z,16.80
2024-05-09T22:24:52.399Z,20.23
2024-05-09T22:27:21.115Z,18.23
2024-05-09T22:29:51.892Z,24.50
2024-05-09T22:32:20.715Z,16.13
2024-05-09T22:34:54.315Z,51.08
2024-05-09T22:37:23.173Z,18.50
2024-05-09T22:39:53.962Z,18.52
2024-05-09T22:42:22.601Z,14.23
2024-05-09T22:44:53.520Z,15.32
2024-05-09T22:47:22.224Z,14.77
2024-05-09T22:49:56.033Z,19.17
2024-05-09T22:52:24.712Z,13.98
2024-05-09T22:54:55.560Z,18.13
2024-05-09T22:57:24.226Z,13.82
2024-05-09T22:59:55.073Z,14.95
2024-05-09T23:02:23.983Z,18.45
2024-05-09T23:04:57.495Z,11.23
2024-05-09T23:07:26.376Z,12.68
2024-05-09T23:09:57.289Z,12.63
2024-05-09T23:12:25.891Z,13.75
2024-05-09T23:14:56.674Z,12.50
2024-05-09T23:17:25.554Z,9.68
2024-05-09T23:19:59.062Z,12.13
2024-05-09T23:22:27.764Z,9.45
2024-05-09T23:24:58.548Z,8.95
2024-05-09T23:27:27.286Z,7.20
2024-05-09T23:29:58.511Z,9.40
2024-05-09T23:32:27.848Z,7.38
2024-05-09T23:35:01.587Z,7.65
2024-05-09T23:37:30.396Z,12.07
2024-05-09T23:40:01.380Z,8.98
2024-05-09T23:42:30.540Z,5.25
2024-05-09T23:45:01.355Z,6.72
2024-05-09T23:47:30.221Z,7.07
2024-05-09T23:50:06.713Z,7.35
2024-05-09T23:52:40.120Z,6.22
2024-05-09T23:55:08.567Z,7.90
2024-05-09T23:57:39.810Z,7.28
